Terminal Aerodrome Forecast
Issued by NWS

Home | Current Version | Previous Version | Text Only | Print | Product List | Glossary On
Versions: 1 2 3 4 5 6 7 8 9 10 11 12 13 14 15 16 17 18 19 20 21 22 23 24 25 26 27 28 29 30 31 32 33 34 35 36 37
000
FTUS46 KOTX 231303 AAA
TAFCOE
TAF AMD
KCOE 231303Z 2313/2412 19006KT 1/4SM FG OVC001
     FM231330 19006KT 3SM BR BKN004
     FM231500 19006KT P6SM SCT020
     FM232000 23006KT P6SM BKN060
     FM240300 12003KT P6SM SKC
      AMD LTD TO CLD VIS AND WIND=

USA.gov is the U.S. government's official web portal to all federal, state and local government web resources and services.